Time;durP1;ratioP1;P1;durP2;ratioP2;P2;SDS_P1;SDS_P2;PMS_P1;PMS_P2;Temp;Humidity;BMP_temperature;BMP_pressure;BME280_temperature;BME280_humidity;BME280_pressure;Samples;Min_cycle;Max_cycle;Signal;HPM_P1;HPM_P2
2023/09/04 00:02:19;;;;;;;4.47;2.67;;;;;;;;;;5012823;28;20121;-72
2023/09/04 00:05:05;;;;;;;7.25;2.70;;;;;;;;;;5035167;28;20095;-72
2023/09/04 00:07:50;;;;;;;8.25;2.90;;;;;;;;;;5002995;28;20084;-71
2023/09/04 00:10:35;;;;;;;4.88;2.78;;;;;;;;;;5000294;28;20037;-70
2023/09/04 00:13:21;;;;;;;5.47;2.90;;;;;;;;;;5022496;28;20020;-70
2023/09/04 00:16:06;;;;;;;5.38;2.95;;;;;;;;;;5030989;28;20103;-69
2023/09/04 00:18:51;;;;;;;4.82;2.90;;;;;;;;;;5000926;28;20540;-73
2023/09/04 00:21:36;;;;;;;5.60;2.97;;;;;;;;;;5014986;28;20045;-68
2023/09/04 00:24:23;;;;;;;4.63;2.45;;;;;;;;;;5000027;28;20037;-67
2023/09/04 00:27:09;;;;;;;4.95;2.90;;;;;;;;;;5005244;28;20128;-69
2023/09/04 00:29:54;;;;;;;6.78;3.25;;;;;;;;;;5015695;28;20335;-69
2023/09/04 00:32:39;;;;;;;2.92;2.28;;;;;;;;;;5000776;28;20370;-69
2023/09/04 00:35:24;;;;;;;5.00;2.70;;;;;;;;;;5004722;28;20025;-74
2023/09/04 00:38:10;;;;;;;5.05;2.50;;;;;;;;;;5026359;28;20382;-72
2023/09/04 00:40:55;;;;;;;5.55;3.10;;;;;;;;;;5002306;28;20030;-70
2023/09/04 00:43:40;;;;;;;7.53;2.95;;;;;;;;;;5028707;28;20036;-71
2023/09/04 00:46:26;;;;;;;3.50;2.55;;;;;;;;;;5012423;28;20034;-71
2023/09/04 00:49:12;;;;;;;3.72;2.70;;;;;;;;;;5002723;28;20119;-70
2023/09/04 00:51:58;;;;;;;4.15;2.33;;;;;;;;;;5005514;28;20041;-71
2023/09/04 00:54:43;;;;;;;4.25;2.90;;;;;;;;;;4998357;28;20049;-69
2023/09/04 00:57:28;;;;;;;4.60;2.78;;;;;;;;;;5014541;28;20110;-77
2023/09/04 01:00:14;;;;;;;5.05;2.67;;;;;;;;;;5002951;28;20385;-77
2023/09/04 01:03:00;;;;;;;4.53;3.05;;;;;;;;;;5032686;28;20153;-76
2023/09/04 01:05:45;;;;;;;4.00;2.72;;;;;;;;;;5019468;28;20029;-76
2023/09/04 01:08:30;;;;;;;4.85;3.05;;;;;;;;;;5006727;28;20022;-77
2023/09/04 01:11:23;;;;;;;3.67;2.55;;;;;;;;;;5000172;28;20283;-78
2023/09/04 01:14:13;;;;;;;4.85;2.42;;;;;;;;;;5013629;28;20083;-74
2023/09/04 01:16:59;;;;;;;6.63;2.63;;;;;;;;;;5015548;28;20191;-72
2023/09/04 01:19:45;;;;;;;5.97;3.15;;;;;;;;;;5035040;28;20160;-71
2023/09/04 01:22:30;;;;;;;4.10;2.60;;;;;;;;;;5030499;28;20381;-70
2023/09/04 01:25:16;;;;;;;5.00;2.90;;;;;;;;;;5020078;28;21276;-71
2023/09/04 01:28:10;;;;;;;3.70;2.58;;;;;;;;;;5005687;28;20025;-71
2023/09/04 01:31:08;;;;;;;6.68;2.67;;;;;;;;;;5030118;28;20041;-71
2023/09/04 01:33:58;;;;;;;3.72;2.58;;;;;;;;;;5007892;28;20393;-74
2023/09/04 01:36:44;;;;;;;4.60;2.45;;;;;;;;;;5007234;28;20046;-73
2023/09/04 01:39:30;;;;;;;5.68;2.47;;;;;;;;;;5019793;28;20038;-74
2023/09/04 01:42:15;;;;;;;8.30;3.08;;;;;;;;;;5004584;28;20030;-74
2023/09/04 01:45:02;;;;;;;4.85;2.05;;;;;;;;;;5005946;28;20034;-72
2023/09/04 01:47:47;;;;;;;3.72;2.03;;;;;;;;;;5031922;28;20032;-73
2023/09/04 01:50:32;;;;;;;3.40;2.50;;;;;;;;;;5009589;28;20038;-74
2023/09/04 01:53:17;;;;;;;5.20;2.35;;;;;;;;;;5030902;28;20037;-72
2023/09/04 01:56:03;;;;;;;5.38;2.40;;;;;;;;;;5008359;28;20053;-70
2023/09/04 01:58:48;;;;;;;3.65;2.63;;;;;;;;;;5001944;28;20037;-73
2023/09/04 02:01:35;;;;;;;5.38;2.70;;;;;;;;;;5002059;28;20029;-73
2023/09/04 02:04:20;;;;;;;5.82;2.42;;;;;;;;;;5022943;28;20469;-72
2023/09/04 02:07:06;;;;;;;7.78;3.10;;;;;;;;;;5005551;28;20026;-74
2023/09/04 02:09:51;;;;;;;5.10;2.17;;;;;;;;;;5009214;28;20037;-69
2023/09/04 02:12:36;;;;;;;4.05;2.70;;;;;;;;;;5009802;28;20022;-70
2023/09/04 02:15:21;;;;;;;9.40;2.88;;;;;;;;;;5003076;28;20501;-69
2023/09/04 02:18:06;;;;;;;4.95;2.85;;;;;;;;;;5005502;28;20033;-69
2023/09/04 02:20:52;;;;;;;5.90;3.35;;;;;;;;;;5028097;28;20079;-71
2023/09/04 02:23:37;;;;;;;6.97;2.65;;;;;;;;;;5009856;28;20041;-69
2023/09/04 02:26:22;;;;;;;5.28;2.72;;;;;;;;;;5010180;28;20060;-76
2023/09/04 02:29:07;;;;;;;4.18;2.60;;;;;;;;;;5004409;28;20034;-77
2023/09/04 02:31:52;;;;;;;5.88;2.67;;;;;;;;;;5003060;28;20301;-77
2023/09/04 02:34:40;;;;;;;4.85;3.17;;;;;;;;;;5010347;28;20191;-77
2023/09/04 02:37:26;;;;;;;5.03;2.92;;;;;;;;;;5039300;28;20041;-77
2023/09/04 02:40:11;;;;;;;5.35;3.22;;;;;;;;;;5032572;28;20040;-80
2023/09/04 02:42:56;;;;;;;3.83;3.13;;;;;;;;;;5001737;28;20429;-79
2023/09/04 02:45:41;;;;;;;4.28;3.25;;;;;;;;;;5009120;28;20041;-72
2023/09/04 02:48:27;;;;;;;6.20;2.90;;;;;;;;;;5003630;28;20465;-71
2023/09/04 02:51:12;;;;;;;6.07;2.92;;;;;;;;;;4995390;28;20039;-71
2023/09/04 02:53:57;;;;;;;4.15;2.92;;;;;;;;;;5008441;28;20057;-70
2023/09/04 02:56:42;;;;;;;6.03;3.10;;;;;;;;;;5006139;28;20049;-69
2023/09/04 02:59:28;;;;;;;4.45;2.60;;;;;;;;;;5012887;28;20025;-71
2023/09/04 03:02:13;;;;;;;5.47;2.80;;;;;;;;;;5008175;28;20060;-74
2023/09/04 03:04:59;;;;;;;4.00;2.88;;;;;;;;;;5025022;28;20037;-74
2023/09/04 03:07:44;;;;;;;3.80;2.28;;;;;;;;;;5033153;28;20504;-71
2023/09/04 03:10:32;;;;;;;3.60;2.30;;;;;;;;;;5005154;28;20026;-71
2023/09/04 03:13:17;;;;;;;6.47;2.65;;;;;;;;;;5033560;28;20109;-71
2023/09/04 03:16:03;;;;;;;7.97;2.58;;;;;;;;;;5003908;28;20037;-71
2023/09/04 03:18:49;;;;;;;4.45;3.20;;;;;;;;;;5033427;28;20121;-74
2023/09/04 03:21:34;;;;;;;5.55;2.38;;;;;;;;;;5005146;28;20051;-74
2023/09/04 03:24:20;;;;;;;5.90;3.60;;;;;;;;;;4984621;28;20725;-73
2023/09/04 03:27:05;;;;;;;4.63;2.50;;;;;;;;;;5006120;28;20037;-71
2023/09/04 03:29:51;;;;;;;3.92;2.47;;;;;;;;;;5001022;28;20038;-72
2023/09/04 03:32:36;;;;;;;5.50;2.90;;;;;;;;;;5031299;28;20030;-69
2023/09/04 03:35:21;;;;;;;4.65;3.03;;;;;;;;;;4991330;28;20034;-72
2023/09/04 03:38:06;;;;;;;4.13;2.80;;;;;;;;;;5006980;28;20124;-70
2023/09/04 03:40:51;;;;;;;4.82;2.78;;;;;;;;;;5008290;28;20030;-76
2023/09/04 03:43:37;;;;;;;4.00;2.30;;;;;;;;;;5027654;28;20067;-73
2023/09/04 03:46:22;;;;;;;7.22;2.95;;;;;;;;;;5005138;28;20378;-72
2023/09/04 03:49:07;;;;;;;5.10;3.63;;;;;;;;;;5033349;28;20038;-73
2023/09/04 03:51:53;;;;;;;4.97;3.05;;;;;;;;;;5005026;28;20021;-72
2023/09/04 03:54:38;;;;;;;5.90;2.75;;;;;;;;;;5016040;28;20149;-73
2023/09/04 03:57:23;;;;;;;3.92;2.83;;;;;;;;;;5007293;28;20050;-73
2023/09/04 04:00:18;;;;;;;7.82;3.45;;;;;;;;;;5005310;28;20030;-72
2023/09/04 04:03:04;;;;;;;5.43;2.55;;;;;;;;;;5006899;28;20061;-73
2023/09/04 04:05:49;;;;;;;4.25;2.30;;;;;;;;;;5022075;28;20037;-73
2023/09/04 04:08:34;;;;;;;8.50;3.05;;;;;;;;;;5028052;28;20390;-73
2023/09/04 04:11:19;;;;;;;4.63;2.70;;;;;;;;;;5033295;28;20095;-73
2023/09/04 04:14:05;;;;;;;8.20;3.83;;;;;;;;;;5018390;28;20018;-71
2023/09/04 04:16:51;;;;;;;4.20;2.90;;;;;;;;;;5006508;28;20080;-72
2023/09/04 04:19:38;;;;;;;3.75;2.58;;;;;;;;;;5007828;28;20417;-72
2023/09/04 04:22:24;;;;;;;3.85;2.60;;;;;;;;;;5003841;28;20037;-72
2023/09/04 04:25:10;;;;;;;4.63;2.70;;;;;;;;;;5007266;28;20029;-72
2023/09/04 04:27:56;;;;;;;7.90;2.65;;;;;;;;;;5033708;28;20391;-72
2023/09/04 04:30:41;;;;;;;7.93;2.75;;;;;;;;;;4998457;28;20041;-72
2023/09/04 04:33:26;;;;;;;3.97;2.53;;;;;;;;;;5002033;28;20025;-72
2023/09/04 04:36:11;;;;;;;5.28;2.80;;;;;;;;;;5000611;28;20907;-74
2023/09/04 04:38:57;;;;;;;6.55;3.22;;;;;;;;;;5038219;28;20065;-72
2023/09/04 04:41:42;;;;;;;3.33;2.50;;;;;;;;;;5008958;28;20030;-71
2023/09/04 04:44:27;;;;;;;12.20;3.20;;;;;;;;;;5005329;28;20036;-72
2023/09/04 04:47:13;;;;;;;8.80;3.72;;;;;;;;;;5026836;28;20042;-73
2023/09/04 04:49:58;;;;;;;5.95;2.97;;;;;;;;;;5002043;28;20033;-72
2023/09/04 04:52:43;;;;;;;6.03;2.53;;;;;;;;;;5004851;28;20029;-71
2023/09/04 04:55:28;;;;;;;4.28;2.90;;;;;;;;;;5005038;28;20050;-75
2023/09/04 04:58:14;;;;;;;5.22;2.95;;;;;;;;;;5019242;28;20070;-72
2023/09/04 05:00:59;;;;;;;4.72;2.85;;;;;;;;;;5007781;28;20044;-73
2023/09/04 05:03:44;;;;;;;5.40;3.35;;;;;;;;;;5020180;28;20044;-74
2023/09/04 05:06:29;;;;;;;7.82;4.10;;;;;;;;;;5010968;28;20449;-74
2023/09/04 05:09:14;;;;;;;6.32;3.13;;;;;;;;;;5004246;28;20025;-72
2023/09/04 05:12:00;;;;;;;7.07;3.25;;;;;;;;;;5034369;28;20073;-70
2023/09/04 05:14:45;;;;;;;5.05;2.90;;;;;;;;;;5005364;28;20025;-74
2023/09/04 05:17:30;;;;;;;4.65;3.15;;;;;;;;;;5002851;28;20038;-75
2023/09/04 05:20:16;;;;;;;10.05;3.10;;;;;;;;;;4999484;28;20033;-74
2023/09/04 05:23:01;;;;;;;6.43;3.00;;;;;;;;;;5002955;28;20034;-74
2023/09/04 05:25:47;;;;;;;5.25;2.92;;;;;;;;;;5005342;28;20038;-75
2023/09/04 05:28:32;;;;;;;7.53;3.95;;;;;;;;;;5039251;28;20525;-74
2023/09/04 05:31:17;;;;;;;6.90;3.28;;;;;;;;;;5017438;28;20037;-69
2023/09/04 05:34:02;;;;;;;4.90;3.05;;;;;;;;;;5008313;28;20040;-73
2023/09/04 05:36:48;;;;;;;5.40;2.60;;;;;;;;;;4998513;28;20042;-73
2023/09/04 05:39:33;;;;;;;6.95;3.63;;;;;;;;;;4989911;28;20029;-73
2023/09/04 05:42:18;;;;;;;5.13;2.80;;;;;;;;;;5034687;28;20387;-74
2023/09/04 05:45:03;;;;;;;7.80;3.00;;;;;;;;;;5000603;28;20065;-73
2023/09/04 05:47:49;;;;;;;5.13;2.80;;;;;;;;;;5028001;28;20448;-75
2023/09/04 05:50:34;;;;;;;4.93;2.95;;;;;;;;;;5033685;28;20042;-72
2023/09/04 05:53:19;;;;;;;7.03;3.55;;;;;;;;;;5017109;28;20018;-68
2023/09/04 05:56:05;;;;;;;10.73;3.60;;;;;;;;;;5003844;28;20050;-70
2023/09/04 05:58:51;;;;;;;5.22;3.25;;;;;;;;;;5017527;28;20037;-70
2023/09/04 06:01:36;;;;;;;6.53;3.40;;;;;;;;;;5007692;28;20032;-69
2023/09/04 06:04:21;;;;;;;4.45;3.10;;;;;;;;;;5011484;28;20022;-69
2023/09/04 06:07:08;;;;;;;8.52;3.85;;;;;;;;;;5004880;28;20029;-71
2023/09/04 06:09:53;;;;;;;4.97;3.10;;;;;;;;;;5010291;28;20038;-78
2023/09/04 06:12:38;;;;;;;4.78;3.03;;;;;;;;;;5018648;28;20042;-77
2023/09/04 06:15:23;;;;;;;5.53;3.22;;;;;;;;;;5007414;28;20077;-76
2023/09/04 06:18:09;;;;;;;4.57;3.15;;;;;;;;;;4995757;28;20433;-76
2023/09/04 06:20:54;;;;;;;4.60;2.60;;;;;;;;;;5013794;28;20036;-76
2023/09/04 06:23:39;;;;;;;5.05;3.20;;;;;;;;;;5004402;28;20041;-76
2023/09/04 06:26:24;;;;;;;6.93;3.25;;;;;;;;;;5005330;28;20025;-73
2023/09/04 06:29:09;;;;;;;4.35;3.28;;;;;;;;;;5010730;28;20366;-76
2023/09/04 06:31:55;;;;;;;6.63;3.42;;;;;;;;;;5004614;28;20045;-75
2023/09/04 06:34:40;;;;;;;6.40;3.03;;;;;;;;;;5019770;28;20100;-76
2023/09/04 06:37:25;;;;;;;8.57;3.60;;;;;;;;;;5007634;28;20497;-76
2023/09/04 06:40:11;;;;;;;6.55;2.72;;;;;;;;;;5013233;28;20031;-76
2023/09/04 06:42:56;;;;;;;6.65;3.40;;;;;;;;;;5019775;28;20028;-76
2023/09/04 06:45:41;;;;;;;4.35;3.28;;;;;;;;;;5004826;28;20035;-71
2023/09/04 06:48:26;;;;;;;4.95;3.70;;;;;;;;;;4999469;28;20388;-75
2023/09/04 06:51:12;;;;;;;6.05;3.45;;;;;;;;;;5007471;28;20109;-78
2023/09/04 06:53:57;;;;;;;20.13;8.00;;;;;;;;;;5025865;28;20058;-76
2023/09/04 06:56:42;;;;;;;8.70;3.78;;;;;;;;;;5020599;28;20032;-75
2023/09/04 06:59:27;;;;;;;5.75;2.90;;;;;;;;;;5016462;28;20040;-77
2023/09/04 07:02:13;;;;;;;6.05;2.67;;;;;;;;;;5003884;28;20080;-75
2023/09/04 07:04:58;;;;;;;7.43;3.88;;;;;;;;;;5008203;28;20041;-75
2023/09/04 07:07:43;;;;;;;7.22;3.47;;;;;;;;;;5015076;28;20029;-74
2023/09/04 07:10:28;;;;;;;4.57;3.00;;;;;;;;;;5037337;28;20037;-73
2023/09/04 07:13:14;;;;;;;6.60;3.33;;;;;;;;;;5014810;28;20085;-73
2023/09/04 07:15:59;;;;;;;6.90;3.63;;;;;;;;;;5021544;28;20116;-74
2023/09/04 07:18:44;;;;;;;4.88;3.45;;;;;;;;;;5005185;28;20734;-73
2023/09/04 07:21:29;;;;;;;8.70;3.25;;;;;;;;;;5020047;28;20033;-72
2023/09/04 07:24:14;;;;;;;6.85;3.75;;;;;;;;;;5008696;28;20032;-75
2023/09/04 07:27:00;;;;;;;4.03;3.05;;;;;;;;;;5022654;28;20026;-74
2023/09/04 07:29:45;;;;;;;6.07;3.25;;;;;;;;;;5045291;28;20033;-74
2023/09/04 07:32:30;;;;;;;6.95;3.17;;;;;;;;;;5005498;28;20022;-73
2023/09/04 07:35:15;;;;;;;3.90;3.15;;;;;;;;;;4989611;28;20041;-73
2023/09/04 07:38:01;;;;;;;5.55;3.70;;;;;;;;;;5023099;28;20038;-73
2023/09/04 07:40:46;;;;;;;5.57;3.40;;;;;;;;;;4984407;28;20021;-76
2023/09/04 07:43:32;;;;;;;7.10;3.25;;;;;;;;;;5003059;28;20244;-74
2023/09/04 07:46:17;;;;;;;7.57;3.05;;;;;;;;;;5034672;28;20480;-75
2023/09/04 07:49:02;;;;;;;4.38;2.85;;;;;;;;;;5005058;28;20064;-77
2023/09/04 07:51:47;;;;;;;6.10;3.30;;;;;;;;;;5002835;28;20030;-77
2023/09/04 07:54:33;;;;;;;4.93;2.83;;;;;;;;;;5010546;28;20418;-76
2023/09/04 07:57:18;;;;;;;6.40;3.17;;;;;;;;;;5025212;28;20102;-74
2023/09/04 08:00:03;;;;;;;5.50;2.40;;;;;;;;;;5004228;28;20049;-70
2023/09/04 08:02:49;;;;;;;8.40;3.13;;;;;;;;;;5014022;28;20113;-70
2023/09/04 08:05:34;;;;;;;4.07;2.92;;;;;;;;;;5030157;28;20022;-68
2023/09/04 08:08:19;;;;;;;4.40;2.95;;;;;;;;;;5014436;28;20540;-73
2023/09/04 08:11:04;;;;;;;9.02;4.63;;;;;;;;;;5008926;28;20573;-71
2023/09/04 08:13:49;;;;;;;4.65;3.22;;;;;;;;;;5011868;28;20029;-73
2023/09/04 08:16:35;;;;;;;5.10;3.00;;;;;;;;;;5025220;28;20080;-73
2023/09/04 08:19:20;;;;;;;5.93;3.33;;;;;;;;;;5016927;28;20160;-74
2023/09/04 08:22:05;;;;;;;6.63;3.10;;;;;;;;;;5033894;28;20381;-75
2023/09/04 08:24:50;;;;;;;3.40;3.00;;;;;;;;;;5023323;28;20086;-74
2023/09/04 08:27:38;;;;;;;5.80;2.70;;;;;;;;;;5015008;28;20440;-74
2023/09/04 08:30:23;;;;;;;5.25;2.50;;;;;;;;;;5021254;28;20034;-74
2023/09/04 08:33:08;;;;;;;5.10;3.35;;;;;;;;;;5005141;28;20037;-74
2023/09/04 08:35:54;;;;;;;3.80;3.15;;;;;;;;;;5007751;28;20057;-72
2023/09/04 08:38:39;;;;;;;3.35;2.70;;;;;;;;;;5007281;28;20033;-77
2023/09/04 08:41:26;;;;;;;5.03;2.47;;;;;;;;;;5016155;28;20416;-76
2023/09/04 08:44:11;;;;;;;4.50;2.95;;;;;;;;;;5014944;28;20083;-77
2023/09/04 08:46:58;;;;;;;4.78;2.60;;;;;;;;;;5017205;28;20030;-77
2023/09/04 08:49:43;;;;;;;4.55;2.47;;;;;;;;;;5008105;28;20042;-75
2023/09/04 08:52:28;;;;;;;7.45;2.80;;;;;;;;;;5017595;28;20052;-73
2023/09/04 08:55:14;;;;;;;4.35;2.95;;;;;;;;;;5015087;28;20506;-73
2023/09/04 08:58:00;;;;;;;6.47;2.88;;;;;;;;;;5009616;28;20089;-76
2023/09/04 09:00:46;;;;;;;3.58;2.60;;;;;;;;;;5003807;28;20073;-74
2023/09/04 09:03:32;;;;;;;4.20;2.75;;;;;;;;;;5019267;28;20038;-76
2023/09/04 09:06:17;;;;;;;3.45;2.35;;;;;;;;;;5013497;28;20491;-74
2023/09/04 09:09:03;;;;;;;5.40;3.08;;;;;;;;;;4995402;28;20095;-75
2023/09/04 09:11:54;;;;;;;4.95;2.95;;;;;;;;;;5014058;28;20647;-79
2023/09/04 09:14:39;;;;;;;4.90;2.90;;;;;;;;;;5008031;28;20022;-75
2023/09/04 09:17:24;;;;;;;6.55;3.17;;;;;;;;;;5012106;28;20557;-74
2023/09/04 09:20:09;;;;;;;3.92;2.58;;;;;;;;;;5025237;28;20069;-78
2023/09/04 09:22:55;;;;;;;3.60;2.53;;;;;;;;;;5015728;28;20117;-74
2023/09/04 09:25:40;;;;;;;3.53;2.72;;;;;;;;;;5017102;28;20069;-74
2023/09/04 09:28:26;;;;;;;3.72;3.00;;;;;;;;;;5018686;28;20021;-74
2023/09/04 09:31:12;;;;;;;3.97;2.90;;;;;;;;;;5013142;28;20034;-72
2023/09/04 09:33:57;;;;;;;3.28;2.72;;;;;;;;;;5027061;28;20072;-72
2023/09/04 09:36:42;;;;;;;4.07;2.67;;;;;;;;;;5037223;28;20084;-72
2023/09/04 09:39:29;;;;;;;3.58;2.30;;;;;;;;;;5011471;28;20029;-71
2023/09/04 09:42:14;;;;;;;3.60;2.85;;;;;;;;;;5023596;28;20029;-70
2023/09/04 09:45:00;;;;;;;6.55;2.88;;;;;;;;;;5002539;28;20077;-72
2023/09/04 09:47:45;;;;;;;3.00;2.55;;;;;;;;;;5035973;28;20033;-71
2023/09/04 09:50:31;;;;;;;3.22;2.42;;;;;;;;;;5012801;28;20035;-72
2023/09/04 09:53:16;;;;;;;6.20;2.78;;;;;;;;;;5019471;28;20058;-71
2023/09/04 09:56:02;;;;;;;8.48;3.35;;;;;;;;;;5008679;28;20133;-72
2023/09/04 09:58:48;;;;;;;4.90;2.80;;;;;;;;;;5008393;28;20054;-71
2023/09/04 10:01:36;;;;;;;4.20;2.53;;;;;;;;;;5011404;28;20056;-70
2023/09/04 10:04:22;;;;;;;2.95;2.28;;;;;;;;;;5034222;28;20112;-72
2023/09/04 10:07:08;;;;;;;4.18;2.67;;;;;;;;;;5033033;28;20026;-74
2023/09/04 10:10:03;;;;;;;4.07;2.97;;;;;;;;;;5041430;28;20022;-73
2023/09/04 10:12:49;;;;;;;5.05;2.50;;;;;;;;;;5009442;28;20045;-74
2023/09/04 10:15:36;;;;;;;6.55;3.15;;;;;;;;;;5020496;28;20075;-73
2023/09/04 10:18:32;;;;;;;7.50;3.20;;;;;;;;;;4997624;28;20034;-74
2023/09/04 10:21:19;;;;;;;3.13;2.60;;;;;;;;;;5030681;28;20034;-73
2023/09/04 10:24:06;;;;;;;4.00;2.42;;;;;;;;;;5009885;28;20040;-75
2023/09/04 10:27:00;;;;;;;5.30;2.85;;;;;;;;;;5013953;28;20022;-70
2023/09/04 10:29:47;;;;;;;3.75;2.47;;;;;;;;;;4999793;28;20026;-81
2023/09/04 10:32:33;;;;;;;3.75;2.15;;;;;;;;;;5045501;28;20058;-79
2023/09/04 10:35:19;;;;;;;4.40;3.03;;;;;;;;;;5002817;28;20038;-79
2023/09/04 10:38:05;;;;;;;4.28;2.72;;;;;;;;;;4997313;28;20029;-80
2023/09/04 10:40:51;;;;;;;4.82;2.63;;;;;;;;;;5014058;28;20037;-79
2023/09/04 10:43:43;;;;;;;3.45;2.22;;;;;;;;;;5004514;28;20109;-74
2023/09/04 10:46:28;;;;;;;4.70;2.78;;;;;;;;;;5045642;28;20037;-71
2023/09/04 10:49:28;;;;;;;4.68;2.90;;;;;;;;;;5006566;28;20026;-69
2023/09/04 10:52:14;;;;;;;4.03;2.75;;;;;;;;;;5005672;28;20029;-69
2023/09/04 10:55:12;;;;;;;4.60;2.92;;;;;;;;;;5028061;28;20762;-70
2023/09/04 10:57:59;;;;;;;3.70;2.30;;;;;;;;;;5003804;28;20061;-71
2023/09/04 11:00:44;;;;;;;3.75;2.22;;;;;;;;;;5011522;28;20080;-69
2023/09/04 11:03:29;;;;;;;3.40;2.58;;;;;;;;;;5031787;28;20382;-72
2023/09/04 11:06:20;;;;;;;3.53;2.33;;;;;;;;;;5013974;28;20026;-73
2023/09/04 11:09:09;;;;;;;3.88;2.47;;;;;;;;;;5004800;28;20084;-74
2023/09/04 11:11:56;;;;;;;4.97;2.83;;;;;;;;;;5004585;28;20029;-72
2023/09/04 11:14:46;;;;;;;4.72;2.60;;;;;;;;;;5014378;28;20095;-72
2023/09/04 11:17:32;;;;;;;4.00;2.78;;;;;;;;;;5022778;28;20575;-73
2023/09/04 11:20:18;;;;;;;3.47;2.35;;;;;;;;;;5003151;28;20105;-72
2023/09/04 11:23:03;;;;;;;4.63;3.13;;;;;;;;;;5019042;28;20508;-69
2023/09/04 11:25:49;;;;;;;4.93;3.35;;;;;;;;;;5013370;28;20053;-71
2023/09/04 11:28:35;;;;;;;3.70;2.92;;;;;;;;;;4996467;28;20122;-69
2023/09/04 11:31:21;;;;;;;5.70;3.15;;;;;;;;;;5008196;28;20026;-72
2023/09/04 11:34:06;;;;;;;5.85;2.85;;;;;;;;;;4991694;28;20129;-70
2023/09/04 11:36:51;;;;;;;3.22;2.47;;;;;;;;;;5017027;28;20042;-71
2023/09/04 11:39:50;;;;;;;3.28;2.17;;;;;;;;;;5019113;28;20477;-76
2023/09/04 11:42:35;;;;;;;5.85;3.30;;;;;;;;;;5034784;28;20033;-69
2023/09/04 11:45:23;;;;;;;7.03;2.78;;;;;;;;;;5001869;28;20036;-71
2023/09/04 11:48:09;;;;;;;4.28;2.60;;;;;;;;;;5000140;28;20394;-70
2023/09/04 11:50:57;;;;;;;6.38;3.08;;;;;;;;;;5026330;28;21055;-71
2023/09/04 11:53:44;;;;;;;3.15;2.47;;;;;;;;;;5005595;28;20029;-69
2023/09/04 11:56:30;;;;;;;3.50;2.63;;;;;;;;;;5010563;28;20029;-69
2023/09/04 11:59:15;;;;;;;4.00;2.47;;;;;;;;;;5020813;28;20026;-73
2023/09/04 12:02:01;;;;;;;3.97;2.55;;;;;;;;;;5007569;28;20025;-72
2023/09/04 12:04:46;;;;;;;3.85;2.63;;;;;;;;;;5012765;28;20481;-72
2023/09/04 12:07:32;;;;;;;3.10;2.60;;;;;;;;;;5020233;28;20026;-76
2023/09/04 12:10:17;;;;;;;4.03;2.47;;;;;;;;;;5005593;28;20526;-74
2023/09/04 12:13:02;;;;;;;4.53;2.50;;;;;;;;;;5014033;28;20026;-74
2023/09/04 12:15:48;;;;;;;3.63;2.22;;;;;;;;;;5008611;28;20025;-78
2023/09/04 12:18:34;;;;;;;2.40;2.03;;;;;;;;;;5007656;28;20045;-77
2023/09/04 12:21:22;;;;;;;2.50;1.73;;;;;;;;;;5004183;28;20030;-77
2023/09/04 12:24:14;;;;;;;4.00;2.05;;;;;;;;;;5008815;28;20131;-77
2023/09/04 12:27:00;;;;;;;4.00;1.98;;;;;;;;;;5003146;28;20032;-78
2023/09/04 12:29:46;;;;;;;5.32;2.33;;;;;;;;;;5015569;28;20029;-78
2023/09/04 12:32:32;;;;;;;5.28;2.60;;;;;;;;;;4995822;28;20029;-79
2023/09/04 12:35:19;;;;;;;4.63;3.00;;;;;;;;;;5013360;28;20038;-72
2023/09/04 12:38:04;;;;;;;3.70;2.58;;;;;;;;;;5002423;28;20161;-74
2023/09/04 12:40:49;;;;;;;3.28;2.35;;;;;;;;;;5015838;28;20025;-74
2023/09/04 12:43:34;;;;;;;5.28;2.38;;;;;;;;;;5028737;28;20402;-73
2023/09/04 12:46:19;;;;;;;3.78;2.13;;;;;;;;;;5016432;28;20136;-75
2023/09/04 12:49:05;;;;;;;4.07;2.42;;;;;;;;;;5014350;28;20030;-75
2023/09/04 12:51:50;;;;;;;4.28;2.33;;;;;;;;;;5010037;28;20040;-74
2023/09/04 12:54:35;;;;;;;4.28;2.60;;;;;;;;;;5008263;28;20416;-74
2023/09/04 12:57:20;;;;;;;4.25;2.50;;;;;;;;;;5007634;28;20038;-75
2023/09/04 13:00:06;;;;;;;4.53;2.67;;;;;;;;;;5039087;28;20038;-74
2023/09/04 13:02:52;;;;;;;2.60;1.90;;;;;;;;;;5011773;28;20510;-75
2023/09/04 13:05:37;;;;;;;4.60;2.85;;;;;;;;;;4996357;28;20075;-75
2023/09/04 13:08:22;;;;;;;3.42;2.25;;;;;;;;;;5009492;28;20492;-75
2023/09/04 13:11:07;;;;;;;4.47;2.55;;;;;;;;;;5014758;28;20053;-80
2023/09/04 13:13:53;;;;;;;6.25;2.80;;;;;;;;;;5014671;28;20439;-72
2023/09/04 13:16:38;;;;;;;5.05;2.28;;;;;;;;;;5010381;28;20503;-72
2023/09/04 13:19:24;;;;;;;4.07;2.60;;;;;;;;;;5007136;28;20056;-71
2023/09/04 13:22:09;;;;;;;5.10;2.60;;;;;;;;;;4995991;28;20031;-71
2023/09/04 13:24:54;;;;;;;6.72;2.80;;;;;;;;;;5010512;28;20133;-71
2023/09/04 13:27:40;;;;;;;4.95;2.95;;;;;;;;;;5028248;28;20103;-74
2023/09/04 13:30:25;;;;;;;4.15;2.83;;;;;;;;;;5021876;28;20469;-77
2023/09/04 13:33:10;;;;;;;6.40;3.03;;;;;;;;;;5007205;28;20018;-80
2023/09/04 13:35:56;;;;;;;4.95;2.80;;;;;;;;;;5050454;28;20183;-80
2023/09/04 13:38:41;;;;;;;5.13;2.63;;;;;;;;;;5017667;28;20132;-80
2023/09/04 13:41:27;;;;;;;4.53;2.67;;;;;;;;;;5029195;28;20064;-80
2023/09/04 13:44:12;;;;;;;5.70;2.88;;;;;;;;;;5006183;28;20132;-83
2023/09/04 13:46:57;;;;;;;5.43;3.03;;;;;;;;;;5003514;28;20010;-79
2023/09/04 13:49:44;;;;;;;3.17;2.65;;;;;;;;;;5022968;28;20029;-80
2023/09/04 13:52:30;;;;;;;4.30;3.03;;;;;;;;;;5018358;28;20022;-81
2023/09/04 13:55:15;;;;;;;7.57;3.35;;;;;;;;;;5005495;28;20116;-83
2023/09/04 13:58:00;;;;;;;5.90;3.05;;;;;;;;;;5006079;28;20083;-81
2023/09/04 14:00:45;;;;;;;4.10;3.03;;;;;;;;;;4999771;28;20026;-82
2023/09/04 14:03:31;;;;;;;5.88;3.28;;;;;;;;;;5021436;28;20025;-81
2023/09/04 14:06:16;;;;;;;3.95;2.88;;;;;;;;;;5001528;28;20018;-72
2023/09/04 14:09:01;;;;;;;7.30;3.38;;;;;;;;;;5016861;28;20057;-78
2023/09/04 14:11:47;;;;;;;4.18;2.78;;;;;;;;;;5007985;28;20068;-78
2023/09/04 14:14:33;;;;;;;4.70;2.58;;;;;;;;;;5027515;28;20046;-77
2023/09/04 14:17:18;;;;;;;3.80;2.55;;;;;;;;;;5026717;28;20250;-78
2023/09/04 14:20:03;;;;;;;5.35;2.38;;;;;;;;;;5009353;28;20037;-77
2023/09/04 14:22:49;;;;;;;3.90;2.60;;;;;;;;;;4991283;28;20544;-75
2023/09/04 14:25:34;;;;;;;4.72;2.65;;;;;;;;;;5005351;28;20387;-72
2023/09/04 14:28:19;;;;;;;5.05;2.50;;;;;;;;;;5025732;28;20405;-82
2023/09/04 14:31:12;;;;;;;5.50;3.03;;;;;;;;;;5028577;28;20033;-84
2023/09/04 14:33:58;;;;;;;4.47;3.15;;;;;;;;;;5019583;28;20109;-80
2023/09/04 14:36:43;;;;;;;4.95;2.88;;;;;;;;;;5016939;28;20035;-76
2023/09/04 14:39:28;;;;;;;4.88;3.25;;;;;;;;;;5013097;28;20030;-79
2023/09/04 14:42:13;;;;;;;5.25;3.17;;;;;;;;;;5006900;28;20029;-74
2023/09/04 14:45:00;;;;;;;5.55;3.10;;;;;;;;;;5034658;28;20064;-78
2023/09/04 14:47:46;;;;;;;6.00;3.05;;;;;;;;;;5007170;28;20036;-77
2023/09/04 14:50:31;;;;;;;3.63;2.67;;;;;;;;;;5027214;28;20030;-78
2023/09/04 14:53:16;;;;;;;5.28;2.83;;;;;;;;;;4999200;28;20129;-79
2023/09/04 14:56:01;;;;;;;8.02;2.50;;;;;;;;;;5018697;28;20054;-78
2023/09/04 14:58:46;;;;;;;5.30;3.00;;;;;;;;;;5009185;28;20263;-79
2023/09/04 15:01:32;;;;;;;7.28;2.58;;;;;;;;;;5005148;28;20101;-73
2023/09/04 15:04:17;;;;;;;8.68;2.97;;;;;;;;;;5003812;28;20036;-77
2023/09/04 15:07:02;;;;;;;4.15;2.83;;;;;;;;;;5025207;28;20397;-76
2023/09/04 15:09:47;;;;;;;5.80;3.08;;;;;;;;;;5006701;28;20121;-77
2023/09/04 15:12:33;;;;;;;4.07;3.00;;;;;;;;;;5033323;28;20112;-77
2023/09/04 15:15:19;;;;;;;5.18;2.75;;;;;;;;;;4999581;28;20026;-77
2023/09/04 15:18:04;;;;;;;5.18;3.30;;;;;;;;;;5010023;28;20029;-75
2023/09/04 15:20:49;;;;;;;5.45;3.35;;;;;;;;;;5003595;28;20057;-77
2023/09/04 15:23:35;;;;;;;5.35;3.30;;;;;;;;;;4985508;28;20030;-76
2023/09/04 15:26:20;;;;;;;5.80;3.85;;;;;;;;;;4997387;28;20033;-76
2023/09/04 15:29:05;;;;;;;4.10;2.95;;;;;;;;;;5006183;28;20029;-75
2023/09/04 15:31:51;;;;;;;4.80;2.72;;;;;;;;;;5032709;28;20036;-76
2023/09/04 15:34:37;;;;;;;6.85;3.92;;;;;;;;;;5007830;28;20096;-76
2023/09/04 15:37:24;;;;;;;6.63;3.40;;;;;;;;;;5005704;28;20061;-79
2023/09/04 15:40:10;;;;;;;5.47;3.25;;;;;;;;;;5008983;28;20048;-70
2023/09/04 15:42:55;;;;;;;5.95;2.90;;;;;;;;;;4988265;28;20050;-73
2023/09/04 15:45:40;;;;;;;6.00;3.50;;;;;;;;;;5023040;28;20088;-70
2023/09/04 15:48:25;;;;;;;4.55;3.28;;;;;;;;;;5003247;28;20035;-71
2023/09/04 15:51:11;;;;;;;4.75;2.70;;;;;;;;;;4996205;28;20124;-71
2023/09/04 15:53:56;;;;;;;5.13;2.90;;;;;;;;;;5010033;28;20049;-70
2023/09/04 15:56:41;;;;;;;4.65;2.60;;;;;;;;;;5004621;28;20409;-73
2023/09/04 15:59:31;;;;;;;4.75;3.30;;;;;;;;;;5040639;28;20469;-78
2023/09/04 16:02:16;;;;;;;;;;;;;;;;;;5006923;28;20072;-79
2023/09/04 16:05:02;;;;;;;5.20;2.92;;;;;;;;;;4989816;28;19909;-78
2023/09/04 16:07:47;;;;;;;7.18;2.80;;;;;;;;;;5029743;28;20485;-77
2023/09/04 16:10:32;;;;;;;4.10;2.80;;;;;;;;;;5007817;28;20116;-76
2023/09/04 16:13:19;;;;;;;8.98;3.60;;;;;;;;;;5003252;28;20366;-74
2023/09/04 16:16:04;;;;;;;3.78;2.83;;;;;;;;;;5007691;28;20036;-76
2023/09/04 16:18:49;;;;;;;5.00;3.20;;;;;;;;;;5008086;28;20040;-69
2023/09/04 16:21:36;;;;;;;5.55;2.88;;;;;;;;;;5007910;28;20040;-68
2023/09/04 16:24:21;;;;;;;5.00;3.30;;;;;;;;;;5020051;28;20463;-68
2023/09/04 16:27:06;;;;;;;6.57;3.38;;;;;;;;;;5004975;28;20026;-69
2023/09/04 16:29:52;;;;;;;3.42;2.30;;;;;;;;;;5028750;28;20029;-70
2023/09/04 16:32:37;;;;;;;5.35;3.40;;;;;;;;;;5015024;28;20033;-77
2023/09/04 16:35:22;;;;;;;4.78;2.80;;;;;;;;;;5016667;28;20392;-71